EZY42C EGGD-EGCC
Flight info
| Callsign | EZY42C |
|---|---|
| Flight time | 0h 37m |
| Altitude | 18000 |
| Route | BCN P69 EXBUM/N0374F200 P69 DIZIM N864 MONTY |
| Aircraft | A320/M-SDE3FGHIRWY/LB1 |
Departure
| Time | 2026-05-04 11:44 |
|---|---|
| Airport | Bristol Airport (EGGD) |
Arrival
| Time | 2026-05-04 12:22 |
|---|---|
| Airport | Manchester Airport (EGCC) |
| Time | Latitude | Longitude | Altitude | Speed | Heading |
|---|---|---|---|---|---|
| 2026-05-04 11:28 | 51.38526 | -2.70909 | 615 ft | 0 kts | 266° |
| 2026-05-04 11:34 | 51.38527 | -2.70886 | 628 ft | 3 kts | 266° |
| 2026-05-04 11:35 | 51.38528 | -2.70856 | 622 ft | 3 kts | 258° |
| 2026-05-04 11:35 | 51.38537 | -2.70832 | 620 ft | 3 kts | 182° |
| 2026-05-04 11:35 | 51.38538 | -2.70831 | 619 ft | 0 kts | 176° |
| 2026-05-04 11:38 | 51.38534 | -2.70831 | 623 ft | 1 kts | 175° |
| 2026-05-04 11:38 | 51.38518 | -2.70829 | 622 ft | 3 kts | 175° |
| 2026-05-04 11:38 | 51.38489 | -2.70815 | 615 ft | 6 kts | 150° |
| 2026-05-04 11:38 | 51.38469 | -2.70747 | 620 ft | 8 kts | 109° |
| 2026-05-04 11:39 | 51.38454 | -2.70722 | 622 ft | 0 kts | 149° |
| 2026-05-04 11:39 | 51.38449 | -2.70717 | 623 ft | 5 kts | 152° |
| 2026-05-04 11:40 | 51.38432 | -2.71799 | 618 ft | 32 kts | 267° |
| 2026-05-04 11:41 | 51.38422 | -2.72189 | 618 ft | 37 kts | 268° |
| 2026-05-04 11:41 | 51.38406 | -2.72597 | 625 ft | 36 kts | 266° |
| 2026-05-04 11:41 | 51.38392 | -2.72993 | 621 ft | 35 kts | 267° |
| 2026-05-04 11:41 | 51.38378 | -2.73268 | 632 ft | 20 kts | 249° |
| 2026-05-04 11:42 | 51.38264 | -2.73341 | 625 ft | 19 kts | 175° |
| 2026-05-04 11:42 | 51.38216 | -2.73298 | 631 ft | 2 kts | 112° |
| 2026-05-04 11:42 | 51.38215 | -2.73292 | 630 ft | 0 kts | 101° |
| 2026-05-04 11:42 | 51.38216 | -2.73289 | 630 ft | 1 kts | 95° |
| 2026-05-04 11:43 | 51.38213 | -2.73172 | 628 ft | 35 kts | 89° |
| 2026-05-04 11:43 | 51.38241 | -2.72473 | 632 ft | 90 kts | 86° |
| 2026-05-04 11:43 | 51.38299 | -2.71202 | 629 ft | 137 kts | 84° |
| 2026-05-04 11:44 | 51.38336 | -2.69675 | 1104 ft | 138 kts | 87° |
| 2026-05-04 11:44 | 51.38377 | -2.68099 | 1628 ft | 144 kts | 86° |
| 2026-05-04 11:44 | 51.38443 | -2.66489 | 2205 ft | 147 kts | 79° |
| 2026-05-04 11:44 | 51.38986 | -2.64982 | 2455 ft | 176 kts | 37° |
| 2026-05-04 11:45 | 51.40257 | -2.64521 | 2617 ft | 210 kts | 350° |
| 2026-05-04 11:45 | 51.41634 | -2.65738 | 2778 ft | 250 kts | 318° |
| 2026-05-04 11:45 | 51.42860 | -2.67918 | 3437 ft | 269 kts | 308° |
| 2026-05-04 11:45 | 51.43985 | -2.70329 | 4651 ft | 271 kts | 306° |
| 2026-05-04 11:46 | 51.45103 | -2.72781 | 5747 ft | 275 kts | 307° |
| 2026-05-04 11:46 | 51.46263 | -2.75253 | 6765 ft | 280 kts | 308° |
| 2026-05-04 11:46 | 51.47471 | -2.77730 | 7736 ft | 284 kts | 308° |
| 2026-05-04 11:46 | 51.48719 | -2.80213 | 8722 ft | 288 kts | 308° |
| 2026-05-04 11:47 | 51.50003 | -2.82713 | 9641 ft | 294 kts | 308° |
| 2026-05-04 11:47 | 51.51316 | -2.85245 | 10007 ft | 293 kts | 308° |
| 2026-05-04 11:47 | 51.52625 | -2.87751 | 10572 ft | 301 kts | 308° |
| 2026-05-04 11:47 | 51.54024 | -2.90437 | 10708 ft | 333 kts | 309° |
| 2026-05-04 11:48 | 51.55577 | -2.93421 | 10889 ft | 361 kts | 309° |
| 2026-05-04 11:48 | 51.57207 | -2.96557 | 11351 ft | 370 kts | 309° |
| 2026-05-04 11:48 | 51.58869 | -2.99752 | 11901 ft | 372 kts | 309° |
| 2026-05-04 11:48 | 51.60534 | -3.02953 | 12521 ft | 376 kts | 309° |
| 2026-05-04 11:49 | 51.62221 | -3.06207 | 13153 ft | 382 kts | 309° |
| 2026-05-04 11:49 | 51.63934 | -3.09519 | 13798 ft | 386 kts | 309° |
| 2026-05-04 11:49 | 51.65653 | -3.12847 | 14373 ft | 387 kts | 309° |
| 2026-05-04 11:49 | 51.67379 | -3.16201 | 14968 ft | 391 kts | 309° |
| 2026-05-04 11:50 | 51.69233 | -3.19453 | 15571 ft | 398 kts | 317° |
| 2026-05-04 11:50 | 51.71458 | -3.22056 | 16168 ft | 395 kts | 330° |
| 2026-05-04 11:50 | 51.73986 | -3.23831 | 16800 ft | 400 kts | 343° |
| 2026-05-04 11:50 | 51.76725 | -3.24704 | 17443 ft | 404 kts | 356° |
| 2026-05-04 11:51 | 51.79549 | -3.24613 | 17982 ft | 408 kts | 8° |
| 2026-05-04 11:51 | 51.82340 | -3.23958 | 18064 ft | 405 kts | 9° |
| 2026-05-04 11:51 | 51.85121 | -3.23267 | 18053 ft | 404 kts | 10° |
| 2026-05-04 11:51 | 51.87893 | -3.22565 | 18057 ft | 403 kts | 10° |
| 2026-05-04 11:52 | 51.90664 | -3.21861 | 18054 ft | 404 kts | 10° |
| 2026-05-04 11:52 | 51.93440 | -3.21158 | 18055 ft | 404 kts | 10° |
| 2026-05-04 11:52 | 51.96218 | -3.20458 | 18058 ft | 404 kts | 10° |
| 2026-05-04 11:52 | 51.98996 | -3.19766 | 18056 ft | 404 kts | 9° |
| 2026-05-04 11:53 | 52.01770 | -3.19080 | 18055 ft | 403 kts | 9° |
| 2026-05-04 11:53 | 52.04548 | -3.18495 | 18061 ft | 403 kts | 4° |
| 2026-05-04 11:53 | 52.07350 | -3.18274 | 18059 ft | 403 kts | 3° |
| 2026-05-04 11:53 | 52.10149 | -3.18066 | 18059 ft | 403 kts | 3° |
| 2026-05-04 11:55 | 52.29767 | -3.16544 | 18062 ft | 404 kts | 3° |
| 2026-05-04 11:55 | 52.32580 | -3.16328 | 18062 ft | 405 kts | 3° |
| 2026-05-04 11:56 | 52.35387 | -3.16113 | 18068 ft | 404 kts | 3° |
| 2026-05-04 11:56 | 52.38202 | -3.15898 | 18068 ft | 405 kts | 3° |
| 2026-05-04 11:56 | 52.40978 | -3.15686 | 18068 ft | 404 kts | 3° |
| 2026-05-04 11:56 | 52.43785 | -3.15695 | 18079 ft | 405 kts | 353° |
| 2026-05-04 11:57 | 52.46540 | -3.16647 | 18059 ft | 405 kts | 346° |
| 2026-05-04 11:57 | 52.49272 | -3.17771 | 18066 ft | 403 kts | 345° |
| 2026-05-04 11:57 | 52.51988 | -3.18924 | 18069 ft | 404 kts | 345° |
| 2026-05-04 11:57 | 52.54706 | -3.20098 | 18070 ft | 404 kts | 345° |
| 2026-05-04 11:58 | 52.57425 | -3.21277 | 18071 ft | 404 kts | 345° |
| 2026-05-04 11:58 | 52.60136 | -3.22446 | 18062 ft | 403 kts | 345° |
| 2026-05-04 11:58 | 52.62838 | -3.23608 | 17740 ft | 400 kts | 345° |
| 2026-05-04 11:58 | 52.65516 | -3.24759 | 17029 ft | 395 kts | 345° |
| 2026-05-04 11:59 | 52.68121 | -3.25867 | 16787 ft | 378 kts | 347° |
| 2026-05-04 11:59 | 52.70656 | -3.26460 | 16656 ft | 360 kts | 357° |
| 2026-05-04 11:59 | 52.73098 | -3.26353 | 16527 ft | 344 kts | 7° |
| 2026-05-04 11:59 | 52.75395 | -3.25637 | 16402 ft | 329 kts | 16° |
| 2026-05-04 12:00 | 52.77521 | -3.24449 | 16208 ft | 318 kts | 21° |
| 2026-05-04 12:00 | 52.79593 | -3.23203 | 15790 ft | 316 kts | 20° |
| 2026-05-04 12:00 | 52.81654 | -3.21970 | 15557 ft | 316 kts | 20° |
| 2026-05-04 12:00 | 52.83726 | -3.20733 | 15335 ft | 317 kts | 20° |
| 2026-05-04 12:01 | 52.85792 | -3.19495 | 15106 ft | 314 kts | 20° |
| 2026-05-04 12:01 | 52.87851 | -3.18302 | 14888 ft | 314 kts | 17° |
| 2026-05-04 12:02 | 53.00731 | -3.16511 | 13556 ft | 306 kts | 3° |
| 2026-05-04 12:03 | 53.02850 | -3.16338 | 13312 ft | 304 kts | 3° |
| 2026-05-04 12:03 | 53.04958 | -3.16167 | 13078 ft | 302 kts | 2° |
| 2026-05-04 12:03 | 53.07056 | -3.16000 | 12842 ft | 301 kts | 2° |
| 2026-05-04 12:03 | 53.09142 | -3.15834 | 12607 ft | 299 kts | 2° |
| 2026-05-04 12:04 | 53.11217 | -3.15669 | 12374 ft | 298 kts | 2° |
| 2026-05-04 12:04 | 53.13283 | -3.15502 | 12143 ft | 296 kts | 2° |
| 2026-05-04 12:04 | 53.15337 | -3.15340 | 11912 ft | 295 kts | 2° |
| 2026-05-04 12:04 | 53.17381 | -3.15182 | 11686 ft | 293 kts | 2° |
| 2026-05-04 12:05 | 53.19416 | -3.15024 | 11458 ft | 292 kts | 2° |
| 2026-05-04 12:05 | 53.21441 | -3.14865 | 11229 ft | 290 kts | 2° |
| 2026-05-04 12:05 | 53.23456 | -3.14702 | 11010 ft | 290 kts | 2° |
| 2026-05-04 12:05 | 53.25468 | -3.14539 | 10788 ft | 289 kts | 2° |
| 2026-05-04 12:06 | 53.27470 | -3.14380 | 10568 ft | 287 kts | 2° |
| 2026-05-04 12:06 | 53.29460 | -3.14220 | 10348 ft | 286 kts | 2° |
| 2026-05-04 12:06 | 53.31446 | -3.14063 | 10128 ft | 286 kts | 2° |
| 2026-05-04 12:06 | 53.33426 | -3.13908 | 9908 ft | 284 kts | 2° |
| 2026-05-04 12:07 | 53.35393 | -3.13754 | 9668 ft | 282 kts | 3° |
| 2026-05-04 12:07 | 53.37318 | -3.13138 | 9459 ft | 283 kts | 19° |
| 2026-05-04 12:07 | 53.39064 | -3.11660 | 9160 ft | 281 kts | 35° |
| 2026-05-04 12:07 | 53.40485 | -3.09448 | 8887 ft | 278 kts | 51° |
| 2026-05-04 12:08 | 53.41525 | -3.06752 | 8628 ft | 273 kts | 59° |
| 2026-05-04 12:08 | 53.42471 | -3.04019 | 8366 ft | 269 kts | 59° |
| 2026-05-04 12:08 | 53.43403 | -3.01333 | 8149 ft | 263 kts | 58° |
| 2026-05-04 12:08 | 53.44307 | -2.98729 | 7933 ft | 256 kts | 59° |
| 2026-05-04 12:09 | 53.45188 | -2.96192 | 7733 ft | 255 kts | 58° |
| 2026-05-04 12:09 | 53.46086 | -2.93598 | 7529 ft | 253 kts | 59° |
| 2026-05-04 12:09 | 53.46967 | -2.91047 | 7318 ft | 252 kts | 59° |
| 2026-05-04 12:09 | 53.47834 | -2.88535 | 7134 ft | 251 kts | 59° |
| 2026-05-04 12:10 | 53.48707 | -2.86001 | 6932 ft | 250 kts | 59° |
| 2026-05-04 12:10 | 53.49573 | -2.83481 | 6736 ft | 249 kts | 59° |
| 2026-05-04 12:10 | 53.50438 | -2.80962 | 6536 ft | 248 kts | 59° |
| 2026-05-04 12:10 | 53.51297 | -2.78459 | 6336 ft | 246 kts | 60° |
| 2026-05-04 12:11 | 53.51916 | -2.75784 | 6142 ft | 249 kts | 82° |
| 2026-05-04 12:11 | 53.51790 | -2.72897 | 5934 ft | 249 kts | 108° |
| 2026-05-04 12:11 | 53.50926 | -2.70421 | 5723 ft | 245 kts | 134° |
| 2026-05-04 12:11 | 53.49534 | -2.68860 | 5508 ft | 240 kts | 160° |
| 2026-05-04 12:12 | 53.47967 | -2.68009 | 5292 ft | 234 kts | 162° |
| 2026-05-04 12:12 | 53.46447 | -2.67201 | 5085 ft | 225 kts | 162° |
| 2026-05-04 12:12 | 53.44982 | -2.66421 | 4884 ft | 218 kts | 162° |
| 2026-05-04 12:12 | 53.43553 | -2.65660 | 4674 ft | 212 kts | 162° |
| 2026-05-04 12:13 | 53.42171 | -2.64922 | 4456 ft | 206 kts | 162° |
| 2026-05-04 12:14 | 53.33659 | -2.60373 | 3120 ft | 187 kts | 161° |
| 2026-05-04 12:15 | 53.32420 | -2.59713 | 3021 ft | 188 kts | 161° |
| 2026-05-04 12:15 | 53.31174 | -2.59051 | 2908 ft | 187 kts | 161° |
| 2026-05-04 12:15 | 53.29928 | -2.58387 | 2735 ft | 182 kts | 161° |
| 2026-05-04 12:15 | 53.28777 | -2.57774 | 2594 ft | 171 kts | 161° |
| 2026-05-04 12:16 | 53.27665 | -2.57182 | 2399 ft | 166 kts | 161° |
| 2026-05-04 12:16 | 53.26574 | -2.56600 | 2247 ft | 165 kts | 161° |
| 2026-05-04 12:16 | 53.25476 | -2.56012 | 2212 ft | 166 kts | 161° |
| 2026-05-04 12:16 | 53.24488 | -2.55093 | 2211 ft | 161 kts | 136° |
| 2026-05-04 12:17 | 53.23853 | -2.53539 | 2210 ft | 164 kts | 109° |
| 2026-05-04 12:17 | 53.23702 | -2.51689 | 2212 ft | 163 kts | 84° |
| 2026-05-04 12:17 | 53.24099 | -2.49948 | 2219 ft | 163 kts | 52° |
| 2026-05-04 12:17 | 53.24794 | -2.48450 | 2203 ft | 163 kts | 52° |
| 2026-05-04 12:18 | 53.25493 | -2.46958 | 2207 ft | 163 kts | 52° |
| 2026-05-04 12:18 | 53.26202 | -2.45479 | 2208 ft | 163 kts | 51° |
| 2026-05-04 12:18 | 53.26915 | -2.44006 | 2125 ft | 163 kts | 51° |
| 2026-05-04 12:18 | 53.27626 | -2.42543 | 1948 ft | 162 kts | 51° |
| 2026-05-04 12:19 | 53.28334 | -2.41086 | 1750 ft | 161 kts | 51° |
| 2026-05-04 12:19 | 53.29042 | -2.39629 | 1531 ft | 161 kts | 51° |
| 2026-05-04 12:19 | 53.29745 | -2.38184 | 1309 ft | 157 kts | 51° |
| 2026-05-04 12:19 | 53.30398 | -2.36838 | 1094 ft | 142 kts | 51° |
| 2026-05-04 12:20 | 53.31018 | -2.35562 | 898 ft | 141 kts | 51° |
| 2026-05-04 12:20 | 53.31636 | -2.34288 | 706 ft | 141 kts | 51° |
| 2026-05-04 12:20 | 53.32251 | -2.33020 | 518 ft | 140 kts | 50° |
| 2026-05-04 12:20 | 53.32865 | -2.31753 | 328 ft | 140 kts | 50° |
| 2026-05-04 12:21 | 53.33470 | -2.30500 | 213 ft | 134 kts | 51° |
| 2026-05-04 12:21 | 53.33989 | -2.29425 | 216 ft | 92 kts | 52° |
| 2026-05-04 12:21 | 53.34356 | -2.28692 | 218 ft | 68 kts | 51° |
| 2026-05-04 12:21 | 53.34600 | -2.28192 | 232 ft | 51 kts | 51° |
| 2026-05-04 12:22 | 53.34759 | -2.27861 | 237 ft | 33 kts | 52° |
| 2026-05-04 12:22 | 53.34893 | -2.27563 | 238 ft | 32 kts | 52° |
| 2026-05-04 12:22 | 53.35021 | -2.27311 | 241 ft | 27 kts | 33° |
| 2026-05-04 12:22 | 53.35193 | -2.27241 | 247 ft | 24 kts | 12° |
| 2026-05-04 12:23 | 53.35313 | -2.27195 | 256 ft | 13 kts | 10° |
| 2026-05-04 12:23 | 53.35383 | -2.27206 | 260 ft | 9 kts | 336° |
| 2026-05-04 12:23 | 53.35428 | -2.27260 | 262 ft | 8 kts | 320° |
| 2026-05-04 12:23 | 53.35468 | -2.27316 | 263 ft | 7 kts | 320° |
| 2026-05-04 12:24 | 53.35503 | -2.27366 | 263 ft | 6 kts | 320° |
| 2026-05-04 12:24 | 53.35541 | -2.27415 | 261 ft | 9 kts | 321° |
| 2026-05-04 12:24 | 53.35585 | -2.27475 | 256 ft | 7 kts | 321° |
| 2026-05-04 12:24 | 53.35639 | -2.27547 | 249 ft | 7 kts | 321° |
| 2026-05-04 12:25 | 53.35684 | -2.27606 | 249 ft | 9 kts | 324° |
| 2026-05-04 12:25 | 53.35741 | -2.27653 | 249 ft | 10 kts | 341° |
| 2026-05-04 12:25 | 53.35804 | -2.27710 | 249 ft | 11 kts | 330° |
| 2026-05-04 12:25 | 53.35879 | -2.27730 | 249 ft | 11 kts | 359° |
| 2026-05-04 12:26 | 53.35960 | -2.27730 | 249 ft | 12 kts | 350° |
| 2026-05-04 12:26 | 53.36036 | -2.27807 | 249 ft | 13 kts | 323° |
| 2026-05-04 12:26 | 53.36108 | -2.27909 | 249 ft | 14 kts | 315° |
| 2026-05-04 12:26 | 53.36178 | -2.28026 | 249 ft | 15 kts | 315° |
| 2026-05-04 12:27 | 53.36255 | -2.28154 | 249 ft | 16 kts | 315° |
| 2026-05-04 12:27 | 53.36334 | -2.28286 | 249 ft | 17 kts | 315° |
| 2026-05-04 12:27 | 53.36356 | -2.28322 | 249 ft | 0 kts | 314° |
| 2026-05-04 12:28 | 53.36358 | -2.28326 | 249 ft | 4 kts | 314° |
| 2026-05-04 12:28 | 53.36396 | -2.28408 | 249 ft | 10 kts | 298° |
| 2026-05-04 12:29 | 53.36432 | -2.28514 | 249 ft | 11 kts | 305° |
| 2026-05-04 12:29 | 53.36488 | -2.28607 | 249 ft | 12 kts | 317° |
| 2026-05-04 12:29 | 53.36548 | -2.28708 | 249 ft | 13 kts | 314° |
| 2026-05-04 12:29 | 53.36623 | -2.28770 | 249 ft | 12 kts | 23° |
| 2026-05-04 12:30 | 53.36675 | -2.28657 | 249 ft | 13 kts | 43° |
| 2026-05-04 12:30 | 53.36741 | -2.28550 | 249 ft | 14 kts | 45° |
| 2026-05-04 12:30 | 53.36779 | -2.28440 | 249 ft | 9 kts | 104° |
| 2026-05-04 12:30 | 53.36750 | -2.28399 | 249 ft | 6 kts | 135° |
| 2026-05-04 12:31 | 53.36743 | -2.28387 | 249 ft | 0 kts | 135° |